createdAt,value
2022-11-01T00:00:18.184Z,17.32
2022-11-01T00:01:16.290Z,17.35
2022-11-01T00:02:16.109Z,17.37
2022-11-01T00:03:15.853Z,17.37
2022-11-01T00:04:16.410Z,17.39
2022-11-01T00:05:16.149Z,17.38
2022-11-01T00:06:15.700Z,17.38
2022-11-01T00:07:16.381Z,17.39
2022-11-01T00:08:16.074Z,17.40
2022-11-01T00:09:15.556Z,17.40
2022-11-01T00:11:17.116Z,17.42
2022-11-01T00:12:16.606Z,17.42
2022-11-01T00:13:16.666Z,17.41
2022-11-01T00:14:16.137Z,17.40
2022-11-01T00:15:16.360Z,17.41
2022-11-01T00:16:16.717Z,17.40
2022-11-01T00:17:16.268Z,17.37
2022-11-01T00:18:16.209Z,17.37
2022-11-01T00:19:16.302Z,17.37
2022-11-01T00:20:16.628Z,17.39
2022-11-01T00:21:16.083Z,17.39
2022-11-01T00:22:16.178Z,17.37
2022-11-01T00:23:15.629Z,17.37
2022-11-01T00:24:17.237Z,17.36
2022-11-01T00:25:16.490Z,17.35
2022-11-01T00:26:16.770Z,17.36
2022-11-01T00:27:17.565Z,17.35
2022-11-01T00:28:16.430Z,17.35
2022-11-01T00:29:17.054Z,17.35
2022-11-01T00:30:16.332Z,17.34
2022-11-01T00:31:18.847Z,17.32
2022-11-01T00:32:16.568Z,17.31
2022-11-01T00:33:16.781Z,17.31
2022-11-01T00:34:17.485Z,17.30
2022-11-01T00:35:16.924Z,17.29
2022-11-01T00:36:17.026Z,17.28
2022-11-01T00:37:16.540Z,17.27
2022-11-01T00:38:16.643Z,17.27
2022-11-01T00:39:17.263Z,17.24
2022-11-01T00:40:16.379Z,17.25
2022-11-01T00:41:16.548Z,17.23
2022-11-01T00:42:16.266Z,17.21
2022-11-01T00:43:16.337Z,17.21
2022-11-01T00:44:16.375Z,17.23
2022-11-01T00:45:16.991Z,17.23
2022-11-01T00:46:15.645Z,17.24
2022-11-01T00:47:16.465Z,17.23
2022-11-01T00:48:16.257Z,17.22
2022-11-01T00:49:15.796Z,17.21
2022-11-01T00:50:16.987Z,17.20
2022-11-01T00:51:15.654Z,17.20
2022-11-01T00:52:16.582Z,17.19
2022-11-01T00:53:16.592Z,17.17
2022-11-01T00:54:16.178Z,17.15
2022-11-01T00:55:16.163Z,17.14
2022-11-01T00:56:15.823Z,17.15
2022-11-01T00:57:16.725Z,17.16
2022-11-01T00:58:16.346Z,17.15
2022-11-01T00:59:15.951Z,17.15
2022-11-01T01:00:18.731Z,17.14
2022-11-01T01:01:19.647Z,17.12
2022-11-01T01:02:17.867Z,17.12
2022-11-01T01:03:17.199Z,17.11
2022-11-01T01:04:16.168Z,17.11
2022-11-01T01:05:35.151Z,17.13
2022-11-01T01:06:15.673Z,17.13
2022-11-01T01:07:17.006Z,17.12
2022-11-01T01:08:15.596Z,17.12
2022-11-01T01:09:16.781Z,17.12
2022-11-01T01:10:16.895Z,17.12
2022-11-01T01:11:16.946Z,17.12
2022-11-01T01:12:17.318Z,17.12
2022-11-01T01:13:16.142Z,17.12
2022-11-01T01:14:15.947Z,17.11
2022-11-01T01:15:17.328Z,17.11
2022-11-01T01:16:16.244Z,17.11
2022-11-01T01:17:16.717Z,17.09
2022-11-01T01:18:16.509Z,17.08
2022-11-01T01:19:16.370Z,17.07
2022-11-01T01:20:16.103Z,17.07
2022-11-01T01:21:15.784Z,17.07
2022-11-01T01:22:16.364Z,17.07
2022-11-01T01:23:16.239Z,17.07
2022-11-01T01:24:15.746Z,17.06
2022-11-01T01:25:16.699Z,17.06
2022-11-01T01:26:16.994Z,17.05
2022-11-01T01:27:15.769Z,17.03
2022-11-01T01:28:16.530Z,17.02
2022-11-01T01:29:16.293Z,17.01
2022-11-01T01:30:16.702Z,17.01
2022-11-01T01:31:16.417Z,17.01
2022-11-01T01:32:15.962Z,17.02
2022-11-01T01:33:16.597Z,17.01
2022-11-01T01:34:16.478Z,17.02
2022-11-01T01:35:16.866Z,17.02
2022-11-01T01:36:16.680Z,17.03
2022-11-01T01:37:16.155Z,17.04
2022-11-01T01:38:15.750Z,17.04
2022-11-01T01:39:16.131Z,17.02
2022-11-01T01:40:15.968Z,17.03
2022-11-01T01:41:16.515Z,17.02
2022-11-01T01:42:16.172Z,17.03
2022-11-01T01:43:16.491Z,17.03
2022-11-01T01:44:16.384Z,17.03
2022-11-01T01:45:16.608Z,17.03
2022-11-01T01:46:16.319Z,17.03
2022-11-01T01:47:16.435Z,17.03
2022-11-01T01:48:15.959Z,17.03
2022-11-01T01:49:16.668Z,17.03
2022-11-01T01:50:16.581Z,17.04
2022-11-01T01:51:16.216Z,17.05
2022-11-01T01:52:15.961Z,17.04
2022-11-01T01:53:16.662Z,17.03
2022-11-01T01:54:16.213Z,17.02
2022-11-01T01:55:16.012Z,17.01
2022-11-01T01:56:15.698Z,17.00
2022-11-01T01:57:16.375Z,17
2022-11-01T01:58:15.908Z,16.98
2022-11-01T01:59:16.541Z,16.97
2022-11-01T02:00:17.902Z,16.98
2022-11-01T02:01:17.379Z,16.98
2022-11-01T02:02:17.235Z,16.99
2022-11-01T02:03:16.006Z,17.00
2022-11-01T02:04:15.835Z,17.01
2022-11-01T02:05:16.296Z,17.02
2022-11-01T02:06:17.031Z,17.03
2022-11-01T02:07:17.149Z,17.03
2022-11-01T02:08:16.013Z,17.05
2022-11-01T02:09:15.638Z,17.06
2022-11-01T02:10:16.846Z,17.06
2022-11-01T02:11:16.939Z,17.06
2022-11-01T02:12:17.206Z,17.05
2022-11-01T02:13:16.090Z,17.07
2022-11-01T02:14:15.971Z,17.07
2022-11-01T02:15:17.011Z,17.06
2022-11-01T02:16:15.706Z,17.05
2022-11-01T02:17:16.494Z,17.04
2022-11-01T02:18:15.910Z,17.04
2022-11-01T02:19:16.684Z,17.05
2022-11-01T02:20:16.834Z,17.04
2022-11-01T02:21:16.667Z,17.04
2022-11-01T02:22:16.814Z,17.04
2022-11-01T02:23:16.694Z,17.05
2022-11-01T02:24:16.327Z,17.06
2022-11-01T02:25:16.022Z,17.06
2022-11-01T02:26:15.611Z,17.07
2022-11-01T02:27:16.318Z,17.08
2022-11-01T02:28:15.880Z,17.09
2022-11-01T02:29:16.579Z,17.10
2022-11-01T02:30:16.914Z,17.13
2022-11-01T02:31:16.373Z,17.16
2022-11-01T02:32:16.146Z,17.14
2022-11-01T02:33:15.948Z,17.14
2022-11-01T02:34:17.239Z,17.14
2022-11-01T02:35:16.390Z,17.14
2022-11-01T02:36:16.514Z,17.14
2022-11-01T02:37:16.452Z,17.13
2022-11-01T02:38:16.035Z,17.12
2022-11-01T02:39:15.847Z,17.12
2022-11-01T02:40:17.304Z,17.13
2022-11-01T02:41:16.627Z,17.15
2022-11-01T02:42:16.872Z,17.14
2022-11-01T02:43:17.251Z,17.14
2022-11-01T02:44:21.387Z,17.16
2022-11-01T02:45:17.305Z,17.16
2022-11-01T02:46:16.149Z,17.15
2022-11-01T02:47:16.010Z,17.15
2022-11-01T02:48:15.923Z,17.15
2022-11-01T02:49:16.789Z,17.16
2022-11-01T02:50:16.766Z,17.16
2022-11-01T02:51:16.582Z,17.18
2022-11-01T02:52:16.334Z,17.18
2022-11-01T02:53:16.101Z,17.17
2022-11-01T02:54:15.744Z,17.17
2022-11-01T02:55:15.955Z,17.19
2022-11-01T02:56:16.805Z,17.18
2022-11-01T02:57:16.881Z,17.18
2022-11-01T02:58:16.858Z,17.19
2022-11-01T02:59:16.873Z,17.22
2022-11-01T03:00:17.755Z,17.22
2022-11-01T03:01:16.936Z,17.22
2022-11-01T03:02:16.258Z,17.23
2022-11-01T03:03:15.909Z,17.22
2022-11-01T03:04:16.463Z,17.22
2022-11-01T03:05:16.299Z,17.23
2022-11-01T03:06:15.652Z,17.23
2022-11-01T03:07:16.424Z,17.24
2022-11-01T03:08:15.936Z,17.23
2022-11-01T03:09:16.491Z,17.24
2022-11-01T03:10:16.431Z,17.23
2022-11-01T03:11:16.647Z,17.22
2022-11-01T03:12:16.806Z,17.24
2022-11-01T03:13:17.075Z,17.22
2022-11-01T03:14:15.424Z,17.22
2022-11-01T03:15:16.400Z,17.25
2022-11-01T03:16:16.414Z,17.26
2022-11-01T03:17:16.812Z,17.26
2022-11-01T03:18:17.011Z,17.24
2022-11-01T03:19:15.815Z,17.23
2022-11-01T03:20:16.685Z,17.22
2022-11-01T03:21:16.903Z,17.21
2022-11-01T03:22:17.149Z,17.21
2022-11-01T03:23:16.643Z,17.21
2022-11-01T03:24:16.907Z,17.22
2022-11-01T03:25:17.103Z,17.22
2022-11-01T03:26:16.343Z,17.20
2022-11-01T03:27:16.388Z,17.21
2022-11-01T03:28:15.653Z,17.21
2022-11-01T03:29:16.277Z,17.20
2022-11-01T03:30:17.029Z,17.20
2022-11-01T03:31:15.853Z,17.21
2022-11-01T03:32:16.471Z,17.23
2022-11-01T03:33:15.960Z,17.25
2022-11-01T03:34:16.555Z,17.25
2022-11-01T03:35:17.013Z,17.25
2022-11-01T03:36:20.656Z,17.24
2022-11-01T03:37:16.631Z,17.24
2022-11-01T03:38:16.265Z,17.25
2022-11-01T03:39:16.227Z,17.24
2022-11-01T03:40:15.893Z,17.23
2022-11-01T03:41:16.846Z,17.22
2022-11-01T03:42:16.278Z,17.23
2022-11-01T03:43:16.369Z,17.23
2022-11-01T03:44:16.407Z,17.25
2022-11-01T03:45:16.630Z,17.23
2022-11-01T03:46:16.588Z,17.25
2022-11-01T03:47:16.636Z,17.26
2022-11-01T03:48:16.463Z,17.25
2022-11-01T03:49:16.533Z,17.25
2022-11-01T03:50:16.440Z,17.25
2022-11-01T03:51:16.139Z,17.27
2022-11-01T03:52:15.348Z,17.29
2022-11-01T03:53:15.958Z,17.28
2022-11-01T03:54:44.425Z,17.24
2022-11-01T03:55:16.816Z,17.24
2022-11-01T03:56:16.294Z,17.24
2022-11-01T03:57:16.394Z,17.23
2022-11-01T03:58:16.511Z,17.23
2022-11-01T03:59:16.292Z,17.22
2022-11-01T04:00:18.104Z,17.21
2022-11-01T04:01:16.428Z,17.20
2022-11-01T04:02:16.359Z,17.19
2022-11-01T04:03:16.385Z,17.20
2022-11-01T04:04:16.519Z,17.19
2022-11-01T04:05:16.406Z,17.20
2022-11-01T04:06:16.184Z,17.19
2022-11-01T04:07:16.318Z,17.21
2022-11-01T04:08:16.048Z,17.24
2022-11-01T04:09:15.972Z,17.22
2022-11-01T04:10:17.583Z,17.22
2022-11-01T04:11:17.238Z,17.22
2022-11-01T04:12:16.762Z,17.20
2022-11-01T04:13:16.998Z,17.20
2022-11-01T04:14:15.696Z,17.20
2022-11-01T04:15:16.586Z,17.20
2022-11-01T04:16:49.251Z,17.20
2022-11-01T04:17:16.271Z,17.20
2022-11-01T04:18:16.101Z,17.19
2022-11-01T04:19:16.607Z,17.20
2022-11-01T04:20:16.823Z,17.18
2022-11-01T04:21:16.415Z,17.15
2022-11-01T04:22:19.322Z,17.15
2022-11-01T04:23:16.162Z,17.15
2022-11-01T04:24:16.534Z,17.14
2022-11-01T04:25:16.496Z,17.14
2022-11-01T04:26:16.306Z,17.14
2022-11-01T04:27:16.662Z,17.15
2022-11-01T04:28:16.799Z,17.14
2022-11-01T04:29:16.753Z,17.12
2022-11-01T04:30:16.610Z,17.11
2022-11-01T04:31:16.599Z,17.10
2022-11-01T04:32:16.653Z,17.10
2022-11-01T04:33:16.805Z,17.10
2022-11-01T04:34:16.665Z,17.12
2022-11-01T04:35:16.730Z,17.12
2022-11-01T04:36:16.191Z,17.12
2022-11-01T04:37:16.077Z,17.11
2022-11-01T04:38:16.341Z,17.08
2022-11-01T04:39:16.612Z,17.08
2022-11-01T04:40:16.547Z,17.09
2022-11-01T04:41:16.676Z,17.09
2022-11-01T04:42:16.870Z,17.12
2022-11-01T04:43:16.492Z,17.14
2022-11-01T04:44:16.575Z,17.21
2022-11-01T04:45:15.016Z,17.25
2022-11-01T04:46:15.524Z,17.27
2022-11-01T04:47:16.563Z,17.27
2022-11-01T04:48:16.473Z,17.25
2022-11-01T04:49:15.554Z,17.28
2022-11-01T04:50:16.804Z,17.29
2022-11-01T04:51:16.741Z,17.28
2022-11-01T04:52:17.087Z,17.29
2022-11-01T04:53:16.287Z,17.28
2022-11-01T04:54:16.369Z,17.25
2022-11-01T04:55:16.153Z,17.24
2022-11-01T04:56:15.994Z,17.21
2022-11-01T04:57:16.257Z,17.19
2022-11-01T04:58:16.533Z,17.19
2022-11-01T04:59:16.520Z,17.19
2022-11-01T05:00:18.370Z,17.24
2022-11-01T05:01:16.501Z,17.23
2022-11-01T05:02:16.872Z,17.25
2022-11-01T05:03:16.647Z,17.25
2022-11-01T05:04:17.182Z,17.30
2022-11-01T05:05:16.644Z,17.30
2022-11-01T05:06:16.822Z,17.28
2022-11-01T05:07:16.412Z,17.27
2022-11-01T05:08:15.962Z,17.25
2022-11-01T05:09:16.748Z,17.26
2022-11-01T05:10:16.957Z,17.27
2022-11-01T05:11:16.623Z,17.28
2022-11-01T05:12:16.541Z,17.26
2022-11-01T05:13:15.919Z,17.23
2022-11-01T05:14:16.221Z,17.19
2022-11-01T05:15:16.429Z,17.17
2022-11-01T05:16:26.729Z,17.14
2022-11-01T05:17:21.251Z,17.14
2022-11-01T05:18:15.916Z,17.12
2022-11-01T05:19:22.085Z,17.13
2022-11-01T05:20:16.886Z,17.13
2022-11-01T05:21:17.165Z,17.12
2022-11-01T05:22:16.238Z,17.12
2022-11-01T05:23:16.036Z,17.11
2022-11-01T05:24:15.885Z,17.10
2022-11-01T05:25:17.132Z,17.09
2022-11-01T05:26:16.120Z,17.07
2022-11-01T05:27:23.796Z,17.05
2022-11-01T05:28:16.280Z,17.05
2022-11-01T05:29:36.667Z,17.08
2022-11-01T05:30:17.033Z,17.08
2022-11-01T05:31:15.808Z,17.06
2022-11-01T05:32:16.773Z,17.08
2022-11-01T05:33:17.108Z,17.09
2022-11-01T05:34:16.677Z,17.09
2022-11-01T05:35:16.782Z,17.12
2022-11-01T05:36:16.664Z,17.10
2022-11-01T05:37:16.829Z,17.05
2022-11-01T05:38:16.580Z,17.03
2022-11-01T05:39:16.445Z,17.01
2022-11-01T05:40:16.837Z,17.00
2022-11-01T05:41:17.120Z,17
2022-11-01T05:42:15.616Z,16.98
2022-11-01T05:43:15.965Z,16.99
2022-11-01T05:44:16.555Z,16.98
2022-11-01T05:45:16.628Z,16.96
2022-11-01T05:46:16.074Z,16.94
2022-11-01T05:47:22.139Z,16.89
2022-11-01T05:48:15.508Z,16.89
2022-11-01T05:49:16.291Z,16.88
2022-11-01T05:50:15.800Z,16.86
2022-11-01T05:51:16.255Z,16.83
2022-11-01T05:52:15.859Z,16.82
2022-11-01T05:53:16.337Z,16.83
2022-11-01T05:54:16.435Z,16.83
2022-11-01T05:55:16.437Z,16.82
2022-11-01T05:56:16.179Z,16.82
2022-11-01T05:57:16.344Z,16.84
2022-11-01T05:58:16.503Z,16.85
2022-11-01T05:59:16.267Z,16.85
2022-11-01T06:00:17.587Z,16.84
2022-11-01T06:01:16.384Z,16.83
2022-11-01T06:02:16.783Z,16.84
2022-11-01T06:03:16.902Z,16.83
2022-11-01T06:04:16.534Z,16.84
2022-11-01T06:05:17.367Z,16.85
2022-11-01T06:06:16.558Z,16.85
2022-11-01T06:07:44.792Z,16.88
2022-11-01T06:08:18.512Z,16.88
2022-11-01T06:09:17.993Z,16.87
2022-11-01T06:10:16.467Z,16.86
2022-11-01T06:11:16.591Z,16.87
2022-11-01T06:12:16.493Z,16.88
2022-11-01T06:13:18.053Z,16.88
2022-11-01T06:14:17.301Z,16.91
2022-11-01T06:15:16.856Z,16.88
2022-11-01T06:16:17.072Z,16.84
2022-11-01T06:17:16.675Z,16.83
2022-11-01T06:18:16.800Z,16.87
2022-11-01T06:19:16.468Z,16.95
2022-11-01T06:20:16.876Z,16.94
2022-11-01T06:21:17.851Z,16.94
2022-11-01T06:22:16.733Z,16.92
2022-11-01T06:23:16.681Z,16.94
2022-11-01T06:24:16.420Z,16.92
2022-11-01T06:25:16.624Z,16.91
2022-11-01T06:26:16.683Z,16.91
2022-11-01T06:27:19.080Z,16.88
2022-11-01T06:28:16.277Z,16.87
2022-11-01T06:29:15.529Z,16.89
2022-11-01T06:30:16.448Z,16.88
2022-11-01T06:31:16.343Z,16.85
2022-11-01T06:32:16.325Z,16.84
2022-11-01T06:33:16.642Z,16.80
2022-11-01T06:34:16.761Z,16.76
2022-11-01T06:35:17.713Z,16.73
2022-11-01T06:36:16.433Z,16.70
2022-11-01T06:37:16.795Z,16.69
2022-11-01T06:38:16.713Z,16.71
2022-11-01T06:39:16.683Z,16.73
2022-11-01T06:40:16.638Z,16.75
2022-11-01T06:41:16.743Z,16.76
2022-11-01T06:42:16.716Z,16.80
2022-11-01T06:43:16.759Z,16.82
2022-11-01T06:44:16.447Z,16.78
2022-11-01T06:45:16.494Z,16.76
2022-11-01T06:46:16.300Z,16.72
2022-11-01T06:47:15.979Z,16.71
2022-11-01T06:48:17.768Z,16.77
2022-11-01T06:49:25.157Z,16.75
2022-11-01T06:50:16.218Z,16.75
2022-11-01T06:51:16.128Z,16.72
2022-11-01T06:52:15.912Z,16.73
2022-11-01T06:53:17.163Z,16.68
2022-11-01T06:54:15.871Z,16.63
2022-11-01T06:55:17.739Z,16.57
2022-11-01T06:56:17.051Z,16.59
2022-11-01T06:57:16.228Z,16.58
2022-11-01T06:58:16.625Z,16.54
2022-11-01T06:59:16.468Z,16.51
2022-11-01T07:00:18.163Z,16.50
2022-11-01T07:01:16.776Z,16.50
2022-11-01T07:02:24.442Z,16.51
2022-11-01T07:03:16.321Z,16.49
2022-11-01T07:04:17.723Z,16.45
2022-11-01T07:05:17.644Z,16.42
2022-11-01T07:06:16.877Z,16.41
2022-11-01T07:07:16.901Z,16.38
2022-11-01T07:08:16.827Z,16.37
2022-11-01T07:09:17.762Z,16.33
2022-11-01T07:10:16.897Z,16.31
2022-11-01T07:11:17.310Z,16.32
2022-11-01T07:12:16.634Z,16.32
2022-11-01T07:13:16.831Z,16.32
2022-11-01T07:14:16.972Z,16.32
2022-11-01T07:15:17.567Z,16.31
2022-11-01T07:16:16.557Z,16.28
2022-11-01T07:17:16.946Z,16.26
2022-11-01T07:18:17.517Z,16.27
2022-11-01T07:19:16.446Z,16.31
2022-11-01T07:20:16.538Z,16.32
2022-11-01T07:21:16.482Z,16.32
2022-11-01T07:22:16.795Z,16.29
2022-11-01T07:23:16.853Z,16.25
2022-11-01T07:24:16.478Z,16.25
2022-11-01T07:25:16.532Z,16.24
2022-11-01T07:26:17.097Z,16.17
2022-11-01T07:27:20.437Z,16.16
2022-11-01T07:28:16.953Z,16.17
2022-11-01T07:29:17.126Z,16.10
2022-11-01T07:30:16.682Z,16.07
2022-11-01T07:31:16.589Z,16.04
2022-11-01T07:32:16.792Z,15.98
2022-11-01T07:33:16.648Z,15.97
2022-11-01T07:34:16.077Z,15.92
2022-11-01T07:35:16.344Z,15.90
2022-11-01T07:36:16.236Z,15.88
2022-11-01T07:37:16.501Z,15.87
2022-11-01T07:38:19.453Z,15.84
2022-11-01T07:39:16.547Z,15.85
2022-11-01T07:40:16.790Z,15.81
2022-11-01T07:41:16.749Z,15.78
2022-11-01T07:42:16.915Z,15.77
2022-11-01T07:43:16.490Z,15.79
2022-11-01T07:44:16.664Z,15.78
2022-11-01T07:45:19.196Z,15.77
2022-11-01T07:46:16.271Z,15.74
2022-11-01T07:47:17.406Z,15.73
2022-11-01T07:48:16.426Z,15.72
2022-11-01T07:49:16.083Z,15.73
2022-11-01T07:50:16.128Z,15.71
2022-11-01T07:51:16.006Z,15.67
2022-11-01T07:52:15.887Z,15.66
2022-11-01T07:53:16.852Z,15.67
2022-11-01T07:54:16.391Z,15.67
2022-11-01T07:55:16.466Z,15.67
2022-11-01T07:56:16.183Z,15.67
2022-11-01T07:57:16.656Z,15.71
2022-11-01T07:58:16.678Z,15.71
2022-11-01T07:59:16.478Z,15.70
2022-11-01T08:00:17.628Z,15.68
2022-11-01T08:01:17.204Z,15.66
2022-11-01T08:02:30.124Z,15.68
2022-11-01T08:03:16.509Z,15.68
2022-11-01T08:04:16.261Z,15.69
2022-11-01T08:05:17.109Z,15.72
2022-11-01T08:06:17.320Z,15.74
2022-11-01T08:07:16.852Z,15.72
2022-11-01T08:08:17.063Z,15.74
2022-11-01T08:09:16.176Z,15.71
2022-11-01T08:10:16.958Z,15.68
2022-11-01T08:11:16.998Z,15.66
2022-11-01T08:12:16.599Z,15.64
2022-11-01T08:13:17.013Z,15.67
2022-11-01T08:14:18.055Z,15.66
2022-11-01T08:15:16.607Z,15.67
2022-11-01T08:16:17.088Z,15.67
2022-11-01T08:17:16.791Z,15.67
2022-11-01T08:18:35.622Z,15.72
2022-11-01T08:19:16.848Z,15.72
2022-11-01T08:20:17.523Z,15.71
2022-11-01T08:21:16.670Z,15.76
2022-11-01T08:22:30.863Z,15.76
2022-11-01T08:23:17.214Z,15.74
2022-11-01T08:24:16.590Z,15.73
2022-11-01T08:25:17.521Z,15.71
2022-11-01T08:26:16.824Z,15.74
2022-11-01T08:27:16.813Z,15.75
2022-11-01T08:28:16.872Z,15.73
2022-11-01T08:29:17.337Z,15.69
2022-11-01T08:30:16.996Z,15.69
2022-11-01T08:31:16.754Z,15.66
2022-11-01T08:32:17.247Z,15.70
2022-11-01T08:33:16.598Z,15.72
2022-11-01T08:35:16.800Z,15.73
2022-11-01T08:36:17.587Z,15.72
2022-11-01T08:37:17.068Z,15.71
2022-11-01T08:38:16.732Z,15.72
2022-11-01T08:39:17.017Z,15.72
2022-11-01T08:40:16.370Z,15.71
2022-11-01T08:41:16.443Z,15.72
2022-11-01T08:42:16.790Z,15.72
2022-11-01T08:43:17.867Z,15.74
2022-11-01T08:44:17.804Z,15.68
2022-11-01T08:45:17.468Z,15.66
2022-11-01T08:47:17.225Z,15.64
2022-11-01T08:48:16.964Z,15.66
2022-11-01T08:49:18.042Z,15.66
2022-11-01T08:50:17.574Z,15.68
2022-11-01T08:51:17.030Z,15.67
2022-11-01T08:52:16.660Z,15.69
2022-11-01T08:53:16.914Z,15.71
2022-11-01T08:54:17.298Z,15.69
2022-11-01T08:55:16.110Z,15.69
2022-11-01T08:56:16.656Z,15.69
2022-11-01T08:57:17.115Z,15.69
2022-11-01T08:58:16.520Z,15.72
2022-11-01T08:59:17.054Z,15.76
2022-11-01T09:00:17.401Z,15.77
2022-11-01T09:01:16.938Z,15.75
2022-11-01T09:02:17.679Z,15.80
2022-11-01T09:03:17.138Z,15.77
2022-11-01T09:04:16.832Z,15.76
2022-11-01T09:05:16.955Z,15.80
2022-11-01T09:06:17.631Z,15.78
2022-11-01T09:07:17.188Z,15.78
2022-11-01T09:08:17.538Z,15.78
2022-11-01T09:09:17.042Z,15.76
2022-11-01T09:10:16.813Z,15.75
2022-11-01T09:11:17.375Z,15.81
2022-11-01T09:12:24.589Z,15.82
2022-11-01T09:13:17.708Z,15.84
2022-11-01T09:14:17.295Z,15.80
2022-11-01T09:15:16.698Z,15.82
2022-11-01T09:16:16.664Z,15.85
2022-11-01T09:17:17.174Z,15.87
2022-11-01T09:18:16.617Z,15.89
2022-11-01T09:19:16.763Z,15.83
2022-11-01T09:20:17.141Z,15.80
2022-11-01T09:21:16.614Z,15.78
2022-11-01T09:22:16.731Z,15.79
2022-11-01T09:23:17.030Z,15.80
2022-11-01T09:24:15.908Z,15.74
2022-11-01T09:25:17.486Z,15.76
2022-11-01T09:26:17.299Z,15.79
2022-11-01T09:27:16.408Z,15.83
2022-11-01T09:28:16.788Z,15.77
2022-11-01T09:29:16.941Z,15.77
2022-11-01T09:30:17.249Z,15.76
2022-11-01T09:31:27.007Z,15.73
2022-11-01T09:32:17.301Z,15.73
2022-11-01T09:33:16.547Z,15.73
2022-11-01T09:34:16.534Z,15.78
2022-11-01T09:35:18.033Z,15.86
2022-11-01T09:36:17.150Z,15.97
2022-11-01T09:37:16.421Z,15.93
2022-11-01T09:38:16.719Z,15.97
2022-11-01T09:39:16.856Z,16.05
2022-11-01T09:40:19.877Z,15.97
2022-11-01T09:41:16.576Z,15.98
2022-11-01T09:42:16.426Z,15.93
2022-11-01T09:43:16.675Z,15.92
2022-11-01T09:44:16.634Z,15.91
2022-11-01T09:45:17.289Z,15.89
2022-11-01T09:46:16.403Z,15.93
2022-11-01T09:47:16.449Z,16.00
2022-11-01T09:48:16.921Z,15.97
2022-11-01T09:49:16.803Z,15.93
2022-11-01T09:50:16.914Z,16.06
2022-11-01T09:51:16.703Z,16.05
2022-11-01T09:52:16.324Z,16.13
2022-11-01T09:53:16.459Z,16.58
2022-11-01T09:54:16.894Z,16.32
2022-11-01T09:55:16.850Z,16.55
2022-11-01T09:56:16.870Z,16.70
2022-11-01T09:57:16.603Z,17.00
2022-11-01T09:58:16.506Z,17.43
2022-11-01T09:59:16.603Z,17.18
2022-11-01T10:00:18.358Z,16.87
2022-11-01T10:01:16.775Z,16.63
2022-11-01T10:02:17.271Z,16.53
2022-11-01T10:03:16.735Z,16.44
2022-11-01T10:04:16.822Z,16.34
2022-11-01T10:05:21.804Z,16.36
2022-11-01T10:06:16.952Z,16.37
2022-11-01T10:07:16.800Z,16.37
2022-11-01T10:08:17.128Z,16.46
2022-11-01T10:09:16.651Z,16.47
2022-11-01T10:10:16.933Z,16.47
2022-11-01T10:11:16.899Z,16.49
2022-11-01T10:12:17.383Z,16.52
2022-11-01T10:13:16.546Z,16.55
2022-11-01T10:14:17.022Z,16.54
2022-11-01T10:15:16.399Z,16.56
2022-11-01T10:16:16.296Z,16.62
2022-11-01T10:17:16.548Z,16.64
2022-11-01T10:18:16.068Z,16.55
2022-11-01T10:19:16.113Z,16.50
2022-11-01T10:20:16.744Z,16.48
2022-11-01T10:21:16.178Z,16.46
2022-11-01T10:22:15.847Z,16.45
2022-11-01T10:23:16.175Z,16.46
2022-11-01T10:24:16.321Z,16.46
2022-11-01T10:25:18.074Z,16.42
2022-11-01T10:26:15.925Z,16.36
2022-11-01T10:27:16.637Z,16.37
2022-11-01T10:28:16.395Z,16.37
2022-11-01T10:29:16.044Z,16.40
2022-11-01T10:30:15.715Z,16.39
2022-11-01T10:31:24.231Z,16.37
2022-11-01T10:32:16.088Z,16.35
2022-11-01T10:33:16.292Z,16.38
2022-11-01T10:34:16.192Z,16.45
2022-11-01T10:35:15.936Z,16.43
2022-11-01T10:36:16.250Z,16.37
2022-11-01T10:37:15.968Z,16.37
2022-11-01T10:39:04.601Z,16.40
2022-11-01T10:40:02.868Z,16.43
2022-11-01T10:40:16.859Z,16.43
2022-11-01T10:41:16.159Z,16.43
2022-11-01T10:42:15.635Z,16.43
2022-11-01T10:43:15.882Z,16.46
2022-11-01T10:44:16.177Z,16.50
2022-11-01T10:45:18.950Z,16.53
2022-11-01T10:46:16.427Z,16.54
2022-11-01T10:47:15.700Z,16.54
2022-11-01T10:48:16.275Z,16.50
2022-11-01T10:49:15.941Z,16.52
2022-11-01T10:50:18.083Z,16.55
2022-11-01T10:51:15.856Z,16.60
2022-11-01T10:52:16.374Z,16.69
2022-11-01T10:54:15.595Z,16.68
2022-11-01T10:55:16.679Z,16.70
2022-11-01T10:56:18.611Z,16.70
2022-11-01T10:57:16.064Z,16.64
2022-11-01T10:58:15.532Z,16.66
2022-11-01T10:59:16.284Z,16.65
2022-11-01T11:00:17.505Z,16.60
2022-11-01T11:01:16.514Z,16.61
2022-11-01T11:02:16.606Z,16.63
2022-11-01T11:03:16.492Z,16.68
2022-11-01T11:04:16.338Z,16.67
2022-11-01T11:05:16.183Z,16.70
2022-11-01T11:06:15.706Z,16.63
2022-11-01T11:07:19.987Z,16.60
2022-11-01T11:08:15.736Z,16.57
2022-11-01T11:09:15.914Z,16.53
2022-11-01T11:10:19.564Z,16.49
2022-11-01T11:11:16.278Z,16.51
2022-11-01T11:12:16.158Z,16.57
2022-11-01T11:13:15.385Z,16.59
2022-11-01T11:14:15.734Z,16.58
2022-11-01T11:15:16.079Z,16.58
2022-11-01T11:16:15.248Z,16.62
2022-11-01T11:17:15.799Z,16.59
2022-11-01T11:18:15.756Z,16.61
2022-11-01T11:19:15.969Z,16.59
2022-11-01T11:20:16.394Z,16.56
2022-11-01T11:21:15.891Z,16.62
2022-11-01T11:22:15.931Z,16.61
2022-11-01T11:23:16.214Z,16.62
2022-11-01T11:24:15.628Z,16.62
2022-11-01T11:25:16.046Z,16.61
2022-11-01T11:26:15.436Z,16.67
2022-11-01T11:27:15.669Z,16.67
2022-11-01T11:28:15.583Z,16.69
2022-11-01T11:29:15.761Z,16.66
2022-11-01T11:30:16.360Z,16.62
2022-11-01T11:31:15.296Z,16.58
2022-11-01T11:32:15.545Z,16.58
2022-11-01T11:33:15.763Z,16.62
2022-11-01T11:34:16.235Z,16.62
2022-11-01T11:35:15.304Z,16.62
2022-11-01T11:36:15.594Z,16.64
2022-11-01T11:37:15.607Z,16.64
2022-11-01T11:38:15.876Z,16.65
2022-11-01T11:39:15.960Z,16.63
2022-11-01T11:40:16.345Z,16.61
2022-11-01T11:41:15.421Z,16.65
2022-11-01T11:42:15.322Z,16.65
2022-11-01T11:43:15.232Z,16.70
2022-11-01T11:44:15.586Z,16.70
2022-11-01T11:45:16.162Z,16.68
2022-11-01T11:46:15.166Z,16.67
2022-11-01T11:47:15.338Z,16.64
2022-11-01T11:48:15.397Z,16.64
2022-11-01T11:49:15.672Z,16.67
2022-11-01T11:50:16.153Z,16.71
2022-11-01T11:51:15.237Z,16.77
2022-11-01T11:52:14.845Z,16.83
2022-11-01T11:53:16.112Z,16.84
2022-11-01T11:54:15.647Z,16.81
2022-11-01T11:55:15.704Z,16.81
2022-11-01T11:56:15.810Z,16.79
2022-11-01T11:57:15.887Z,16.74
2022-11-01T11:58:15.820Z,16.75
2022-11-01T11:59:14.419Z,16.70
2022-11-01T12:00:16.572Z,16.70
2022-11-01T12:01:16.327Z,16.74
2022-11-01T12:02:19.953Z,16.75
2022-11-01T12:03:13.744Z,16.76
2022-11-01T12:04:16.592Z,16.75
2022-11-01T12:05:16.300Z,16.76
2022-11-01T12:06:15.973Z,16.78
2022-11-01T12:07:16.094Z,16.81
2022-11-01T12:08:15.395Z,16.81
2022-11-01T12:09:18.151Z,16.80
2022-11-01T12:10:16.208Z,16.84
2022-11-01T12:11:15.794Z,16.90
2022-11-01T12:12:16.077Z,16.93
2022-11-01T12:13:15.435Z,16.99
2022-11-01T12:14:15.728Z,16.95
2022-11-01T12:15:16.352Z,16.95
2022-11-01T12:16:15.943Z,16.94
2022-11-01T12:17:15.370Z,16.94
2022-11-01T12:18:21.352Z,16.93
2022-11-01T12:19:15.682Z,16.93
2022-11-01T12:20:15.682Z,16.96
2022-11-01T12:21:16.078Z,16.98
2022-11-01T12:22:15.710Z,16.98
2022-11-01T12:23:15.869Z,16.98
2022-11-01T12:24:15.993Z,16.97
2022-11-01T12:25:15.143Z,17.04
2022-11-01T12:26:21.872Z,17.07
2022-11-01T12:27:16.200Z,17.02
2022-11-01T12:28:15.370Z,16.97
2022-11-01T12:29:15.420Z,16.93
2022-11-01T12:30:15.730Z,16.92
2022-11-01T12:31:15.803Z,16.92
2022-11-01T12:32:15.886Z,16.88
2022-11-01T12:34:14.998Z,16.90
2022-11-01T12:35:15.298Z,16.90
2022-11-01T12:36:15.367Z,16.87
2022-11-01T12:37:15.662Z,16.82
2022-11-01T12:39:15.970Z,16.82
2022-11-01T12:40:16.451Z,16.81
2022-11-01T12:41:15.716Z,16.89
2022-11-01T12:42:15.486Z,16.89
2022-11-01T12:43:15.959Z,16.85
2022-11-01T12:44:16.072Z,16.85
2022-11-01T12:45:15.971Z,16.84
2022-11-01T12:46:16.136Z,16.83
2022-11-01T12:47:15.468Z,16.85
2022-11-01T12:48:15.584Z,16.84
2022-11-01T12:49:15.905Z,16.88
2022-11-01T12:50:16.405Z,16.93
2022-11-01T12:51:15.727Z,16.95
2022-11-01T12:52:15.946Z,16.94
2022-11-01T12:53:16.281Z,16.92
2022-11-01T12:54:15.177Z,16.95
2022-11-01T12:55:18.170Z,16.98
2022-11-01T12:56:16.019Z,16.95
2022-11-01T12:57:15.511Z,16.94
2022-11-01T12:58:20.233Z,16.98